sensor_id;sensor_type;location;lat;lon;timestamp;P1;durP1;ratioP1;P2;durP2;ratioP2
14665;SDS011;7420;53.574;10.040;2023-07-16T00:01:24;3.90;;;3.80;;
14665;SDS011;7420;53.574;10.040;2023-07-16T00:03:49;3.92;;;3.83;;
14665;SDS011;7420;53.574;10.040;2023-07-16T00:06:15;4.00;;;3.90;;
14665;SDS011;7420;53.574;10.040;2023-07-16T00:08:40;3.90;;;3.80;;
14665;SDS011;7420;53.574;10.040;2023-07-16T00:11:06;4.00;;;3.90;;
14665;SDS011;7420;53.574;10.040;2023-07-16T00:13:32;4.00;;;3.90;;
14665;SDS011;7420;53.574;10.040;2023-07-16T00:15:58;4.05;;;3.95;;
14665;SDS011;7420;53.574;10.040;2023-07-16T00:18:26;4.00;;;3.90;;
14665;SDS011;7420;53.574;10.040;2023-07-16T00:20:52;4.00;;;3.90;;
14665;SDS011;7420;53.574;10.040;2023-07-16T00:23:17;3.90;;;3.80;;
14665;SDS011;7420;53.574;10.040;2023-07-16T00:25:43;3.90;;;3.80;;
14665;SDS011;7420;53.574;10.040;2023-07-16T00:28:15;3.80;;;3.70;;
14665;SDS011;7420;53.574;10.040;2023-07-16T00:30:44;4.20;;;4.00;;
14665;SDS011;7420;53.574;10.040;2023-07-16T00:33:09;4.00;;;3.90;;
14665;SDS011;7420;53.574;10.040;2023-07-16T00:35:35;4.30;;;4.10;;
14665;SDS011;7420;53.574;10.040;2023-07-16T00:38:01;4.00;;;3.90;;
14665;SDS011;7420;53.574;10.040;2023-07-16T00:40:26;4.07;;;3.97;;
14665;SDS011;7420;53.574;10.040;2023-07-16T00:42:52;4.00;;;3.90;;
14665;SDS011;7420;53.574;10.040;2023-07-16T00:45:17;3.90;;;3.80;;
14665;SDS011;7420;53.574;10.040;2023-07-16T00:47:46;4.20;;;4.00;;
14665;SDS011;7420;53.574;10.040;2023-07-16T00:50:12;3.90;;;3.80;;
14665;SDS011;7420;53.574;10.040;2023-07-16T00:52:38;3.80;;;3.70;;
14665;SDS011;7420;53.574;10.040;2023-07-16T00:55:05;3.92;;;3.83;;
14665;SDS011;7420;53.574;10.040;2023-07-16T00:57:32;3.90;;;3.80;;
14665;SDS011;7420;53.574;10.040;2023-07-16T00:59:58;4.00;;;3.90;;
14665;SDS011;7420;53.574;10.040;2023-07-16T01:02:24;4.00;;;3.90;;
14665;SDS011;7420;53.574;10.040;2023-07-16T01:04:50;3.90;;;3.80;;
14665;SDS011;7420;53.574;10.040;2023-07-16T01:07:16;4.00;;;3.90;;
14665;SDS011;7420;53.574;10.040;2023-07-16T01:09:43;3.90;;;3.80;;
14665;SDS011;7420;53.574;10.040;2023-07-16T01:12:10;4.00;;;3.90;;
14665;SDS011;7420;53.574;10.040;2023-07-16T01:14:36;4.07;;;3.95;;
14665;SDS011;7420;53.574;10.040;2023-07-16T01:17:06;3.95;;;3.85;;
14665;SDS011;7420;53.574;10.040;2023-07-16T01:19:34;4.13;;;3.95;;
14665;SDS011;7420;53.574;10.040;2023-07-16T01:22:10;3.90;;;3.80;;
14665;SDS011;7420;53.574;10.040;2023-07-16T01:25:00;4.00;;;3.90;;
14665;SDS011;7420;53.574;10.040;2023-07-16T01:27:44;3.90;;;3.80;;
14665;SDS011;7420;53.574;10.040;2023-07-16T01:30:24;3.90;;;3.80;;
14665;SDS011;7420;53.574;10.040;2023-07-16T01:32:53;4.00;;;3.90;;
14665;SDS011;7420;53.574;10.040;2023-07-16T01:35:20;4.00;;;3.90;;
14665;SDS011;7420;53.574;10.040;2023-07-16T01:37:46;3.80;;;3.70;;
14665;SDS011;7420;53.574;10.040;2023-07-16T01:40:12;4.00;;;3.90;;
14665;SDS011;7420;53.574;10.040;2023-07-16T01:42:39;3.90;;;3.80;;
14665;SDS011;7420;53.574;10.040;2023-07-16T01:45:05;3.90;;;3.80;;
14665;SDS011;7420;53.574;10.040;2023-07-16T01:50:20;4.00;;;3.90;;
14665;SDS011;7420;53.574;10.040;2023-07-16T01:52:45;3.90;;;3.80;;
14665;SDS011;7420;53.574;10.040;2023-07-16T01:55:11;3.90;;;3.80;;
14665;SDS011;7420;53.574;10.040;2023-07-16T01:57:37;3.97;;;3.88;;
14665;SDS011;7420;53.574;10.040;2023-07-16T02:00:05;3.90;;;3.80;;
14665;SDS011;7420;53.574;10.040;2023-07-16T02:02:33;3.90;;;3.80;;
14665;SDS011;7420;53.574;10.040;2023-07-16T02:04:59;3.90;;;3.80;;
14665;SDS011;7420;53.574;10.040;2023-07-16T02:07:24;3.80;;;3.70;;
14665;SDS011;7420;53.574;10.040;2023-07-16T02:09:53;4.00;;;3.90;;
14665;SDS011;7420;53.574;10.040;2023-07-16T02:12:19;4.00;;;3.90;;
14665;SDS011;7420;53.574;10.040;2023-07-16T02:14:44;4.00;;;3.90;;
14665;SDS011;7420;53.574;10.040;2023-07-16T02:17:10;4.20;;;4.00;;
14665;SDS011;7420;53.574;10.040;2023-07-16T02:19:36;3.90;;;3.80;;
14665;SDS011;7420;53.574;10.040;2023-07-16T02:22:01;4.00;;;3.90;;
14665;SDS011;7420;53.574;10.040;2023-07-16T02:24:27;3.90;;;3.80;;
14665;SDS011;7420;53.574;10.040;2023-07-16T02:26:52;3.75;;;3.65;;
14665;SDS011;7420;53.574;10.040;2023-07-16T02:29:18;4.00;;;3.90;;
14665;SDS011;7420;53.574;10.040;2023-07-16T02:31:43;4.03;;;3.92;;
14665;SDS011;7420;53.574;10.040;2023-07-16T02:34:11;4.00;;;3.90;;
14665;SDS011;7420;53.574;10.040;2023-07-16T02:36:40;4.00;;;3.90;;
14665;SDS011;7420;53.574;10.040;2023-07-16T02:39:05;4.38;;;4.18;;
14665;SDS011;7420;53.574;10.040;2023-07-16T02:41:31;4.13;;;3.97;;
14665;SDS011;7420;53.574;10.040;2023-07-16T02:43:59;4.00;;;3.90;;
14665;SDS011;7420;53.574;10.040;2023-07-16T02:46:26;3.90;;;3.80;;
14665;SDS011;7420;53.574;10.040;2023-07-16T02:48:52;3.90;;;3.80;;
14665;SDS011;7420;53.574;10.040;2023-07-16T02:51:17;3.90;;;3.80;;
14665;SDS011;7420;53.574;10.040;2023-07-16T02:53:43;4.00;;;3.90;;
14665;SDS011;7420;53.574;10.040;2023-07-16T02:56:08;3.92;;;3.83;;
14665;SDS011;7420;53.574;10.040;2023-07-16T02:58:34;4.22;;;4.03;;
14665;SDS011;7420;53.574;10.040;2023-07-16T03:00:59;4.20;;;4.00;;
14665;SDS011;7420;53.574;10.040;2023-07-16T03:03:25;4.00;;;3.90;;
14665;SDS011;7420;53.574;10.040;2023-07-16T03:05:51;4.00;;;3.90;;
14665;SDS011;7420;53.574;10.040;2023-07-16T03:08:16;4.00;;;3.90;;
14665;SDS011;7420;53.574;10.040;2023-07-16T03:10:42;4.00;;;3.90;;
14665;SDS011;7420;53.574;10.040;2023-07-16T03:13:07;4.30;;;4.10;;
14665;SDS011;7420;53.574;10.040;2023-07-16T03:15:33;3.97;;;3.88;;
14665;SDS011;7420;53.574;10.040;2023-07-16T03:17:59;4.30;;;4.10;;
14665;SDS011;7420;53.574;10.040;2023-07-16T03:20:24;4.43;;;4.22;;
14665;SDS011;7420;53.574;10.040;2023-07-16T03:22:49;4.03;;;3.90;;
14665;SDS011;7420;53.574;10.040;2023-07-16T03:25:15;4.00;;;3.90;;
14665;SDS011;7420;53.574;10.040;2023-07-16T03:27:40;4.40;;;4.20;;
14665;SDS011;7420;53.574;10.040;2023-07-16T03:30:06;4.25;;;4.07;;
14665;SDS011;7420;53.574;10.040;2023-07-16T03:32:32;3.97;;;3.88;;
14665;SDS011;7420;53.574;10.040;2023-07-16T03:34:58;4.15;;;3.95;;
14665;SDS011;7420;53.574;10.040;2023-07-16T03:37:23;3.97;;;3.88;;
14665;SDS011;7420;53.574;10.040;2023-07-16T03:39:51;4.15;;;3.95;;
14665;SDS011;7420;53.574;10.040;2023-07-16T03:42:17;4.15;;;4.00;;
14665;SDS011;7420;53.574;10.040;2023-07-16T03:44:42;3.90;;;3.80;;
14665;SDS011;7420;53.574;10.040;2023-07-16T03:47:08;4.30;;;4.10;;
14665;SDS011;7420;53.574;10.040;2023-07-16T03:49:33;4.20;;;4.00;;
14665;SDS011;7420;53.574;10.040;2023-07-16T03:51:59;4.10;;;4.00;;
14665;SDS011;7420;53.574;10.040;2023-07-16T03:54:24;3.90;;;3.80;;
14665;SDS011;7420;53.574;10.040;2023-07-16T03:56:50;3.97;;;3.88;;
14665;SDS011;7420;53.574;10.040;2023-07-16T03:59:18;3.90;;;3.80;;
14665;SDS011;7420;53.574;10.040;2023-07-16T04:01:44;4.03;;;3.92;;
14665;SDS011;7420;53.574;10.040;2023-07-16T04:04:09;4.00;;;3.90;;
14665;SDS011;7420;53.574;10.040;2023-07-16T04:06:35;4.00;;;3.90;;
14665;SDS011;7420;53.574;10.040;2023-07-16T04:09:00;4.20;;;4.00;;
14665;SDS011;7420;53.574;10.040;2023-07-16T04:11:29;4.20;;;4.00;;
14665;SDS011;7420;53.574;10.040;2023-07-16T04:13:55;4.00;;;3.90;;
14665;SDS011;7420;53.574;10.040;2023-07-16T04:16:20;4.00;;;3.90;;
14665;SDS011;7420;53.574;10.040;2023-07-16T04:18:45;4.00;;;3.90;;
14665;SDS011;7420;53.574;10.040;2023-07-16T04:21:11;4.20;;;4.00;;
14665;SDS011;7420;53.574;10.040;2023-07-16T04:23:37;4.20;;;4.00;;
14665;SDS011;7420;53.574;10.040;2023-07-16T04:26:02;4.05;;;3.95;;
14665;SDS011;7420;53.574;10.040;2023-07-16T04:28:28;4.10;;;3.97;;
14665;SDS011;7420;53.574;10.040;2023-07-16T04:30:56;3.97;;;3.88;;
14665;SDS011;7420;53.574;10.040;2023-07-16T04:33:21;4.20;;;4.00;;
14665;SDS011;7420;53.574;10.040;2023-07-16T04:35:47;4.20;;;4.00;;
14665;SDS011;7420;53.574;10.040;2023-07-16T04:38:12;4.40;;;4.20;;
14665;SDS011;7420;53.574;10.040;2023-07-16T04:40:38;4.28;;;4.07;;
14665;SDS011;7420;53.574;10.040;2023-07-16T04:43:06;4.00;;;3.90;;
14665;SDS011;7420;53.574;10.040;2023-07-16T04:45:32;3.90;;;3.80;;
14665;SDS011;7420;53.574;10.040;2023-07-16T04:47:57;4.25;;;4.05;;
14665;SDS011;7420;53.574;10.040;2023-07-16T04:50:24;4.10;;;4.00;;
14665;SDS011;7420;53.574;10.040;2023-07-16T04:52:50;4.00;;;3.90;;
14665;SDS011;7420;53.574;10.040;2023-07-16T04:55:15;3.90;;;3.80;;
14665;SDS011;7420;53.574;10.040;2023-07-16T04:57:41;3.90;;;3.80;;
14665;SDS011;7420;53.574;10.040;2023-07-16T05:00:06;4.00;;;3.90;;
14665;SDS011;7420;53.574;10.040;2023-07-16T05:02:33;3.90;;;3.80;;
14665;SDS011;7420;53.574;10.040;2023-07-16T05:04:58;3.90;;;3.80;;
14665;SDS011;7420;53.574;10.040;2023-07-16T05:07:24;4.00;;;3.90;;
14665;SDS011;7420;53.574;10.040;2023-07-16T05:09:49;4.00;;;3.90;;
14665;SDS011;7420;53.574;10.040;2023-07-16T05:12:15;4.00;;;3.90;;
14665;SDS011;7420;53.574;10.040;2023-07-16T05:14:44;3.90;;;3.80;;
14665;SDS011;7420;53.574;10.040;2023-07-16T05:17:12;3.92;;;3.83;;
14665;SDS011;7420;53.574;10.040;2023-07-16T05:19:38;4.10;;;4.00;;
14665;SDS011;7420;53.574;10.040;2023-07-16T05:22:03;4.10;;;4.00;;
14665;SDS011;7420;53.574;10.040;2023-07-16T05:24:30;4.05;;;3.92;;
14665;SDS011;7420;53.574;10.040;2023-07-16T05:26:56;4.00;;;3.90;;
14665;SDS011;7420;53.574;10.040;2023-07-16T05:29:21;3.80;;;3.70;;
14665;SDS011;7420;53.574;10.040;2023-07-16T05:31:47;3.90;;;3.80;;
14665;SDS011;7420;53.574;10.040;2023-07-16T05:34:12;3.90;;;3.80;;
14665;SDS011;7420;53.574;10.040;2023-07-16T05:36:38;4.00;;;3.90;;
14665;SDS011;7420;53.574;10.040;2023-07-16T05:39:04;3.90;;;3.80;;
14665;SDS011;7420;53.574;10.040;2023-07-16T05:41:30;3.85;;;3.75;;
14665;SDS011;7420;53.574;10.040;2023-07-16T05:43:55;3.80;;;3.70;;
14665;SDS011;7420;53.574;10.040;2023-07-16T05:46:20;4.00;;;3.90;;
14665;SDS011;7420;53.574;10.040;2023-07-16T05:48:46;3.90;;;3.80;;
14665;SDS011;7420;53.574;10.040;2023-07-16T05:51:12;4.00;;;3.90;;
14665;SDS011;7420;53.574;10.040;2023-07-16T05:53:37;4.10;;;4.00;;
14665;SDS011;7420;53.574;10.040;2023-07-16T05:56:23;3.90;;;3.80;;
14665;SDS011;7420;53.574;10.040;2023-07-16T05:58:49;3.90;;;3.80;;
14665;SDS011;7420;53.574;10.040;2023-07-16T06:01:14;4.28;;;4.07;;
14665;SDS011;7420;53.574;10.040;2023-07-16T06:03:40;3.90;;;3.80;;
14665;SDS011;7420;53.574;10.040;2023-07-16T06:06:08;4.00;;;3.90;;
14665;SDS011;7420;53.574;10.040;2023-07-16T06:08:37;4.00;;;3.90;;
14665;SDS011;7420;53.574;10.040;2023-07-16T06:11:05;4.00;;;3.90;;
14665;SDS011;7420;53.574;10.040;2023-07-16T06:13:31;3.90;;;3.80;;
14665;SDS011;7420;53.574;10.040;2023-07-16T06:15:57;3.90;;;3.80;;
14665;SDS011;7420;53.574;10.040;2023-07-16T06:18:22;3.92;;;3.83;;
14665;SDS011;7420;53.574;10.040;2023-07-16T06:20:48;4.10;;;4.00;;
14665;SDS011;7420;53.574;10.040;2023-07-16T06:23:14;3.92;;;3.83;;
14665;SDS011;7420;53.574;10.040;2023-07-16T06:25:44;3.85;;;3.75;;
14665;SDS011;7420;53.574;10.040;2023-07-16T06:28:12;3.80;;;3.70;;
14665;SDS011;7420;53.574;10.040;2023-07-16T06:30:37;3.80;;;3.70;;
14665;SDS011;7420;53.574;10.040;2023-07-16T06:33:03;3.80;;;3.70;;
14665;SDS011;7420;53.574;10.040;2023-07-16T06:35:28;3.90;;;3.80;;
14665;SDS011;7420;53.574;10.040;2023-07-16T06:37:54;3.85;;;3.75;;
14665;SDS011;7420;53.574;10.040;2023-07-16T06:40:23;3.90;;;3.80;;
14665;SDS011;7420;53.574;10.040;2023-07-16T06:42:49;3.90;;;3.80;;
14665;SDS011;7420;53.574;10.040;2023-07-16T06:45:16;4.10;;;4.00;;
14665;SDS011;7420;53.574;10.040;2023-07-16T06:47:43;4.00;;;3.90;;
14665;SDS011;7420;53.574;10.040;2023-07-16T06:50:09;4.00;;;3.90;;
14665;SDS011;7420;53.574;10.040;2023-07-16T06:52:34;3.90;;;3.80;;
14665;SDS011;7420;53.574;10.040;2023-07-16T06:55:00;3.85;;;3.75;;
14665;SDS011;7420;53.574;10.040;2023-07-16T06:57:26;3.85;;;3.75;;
14665;SDS011;7420;53.574;10.040;2023-07-16T06:59:51;3.80;;;3.70;;
14665;SDS011;7420;53.574;10.040;2023-07-16T07:02:19;4.00;;;3.90;;
14665;SDS011;7420;53.574;10.040;2023-07-16T07:04:47;3.80;;;3.70;;
14665;SDS011;7420;53.574;10.040;2023-07-16T07:07:13;3.80;;;3.70;;
14665;SDS011;7420;53.574;10.040;2023-07-16T07:09:38;3.70;;;3.60;;
14665;SDS011;7420;53.574;10.040;2023-07-16T07:12:04;3.80;;;3.70;;
14665;SDS011;7420;53.574;10.040;2023-07-16T07:14:32;3.80;;;3.70;;
14665;SDS011;7420;53.574;10.040;2023-07-16T07:16:58;3.80;;;3.70;;
14665;SDS011;7420;53.574;10.040;2023-07-16T07:19:24;3.90;;;3.80;;
14665;SDS011;7420;53.574;10.040;2023-07-16T07:21:50;3.80;;;3.70;;
14665;SDS011;7420;53.574;10.040;2023-07-16T07:24:15;3.70;;;3.60;;
14665;SDS011;7420;53.574;10.040;2023-07-16T07:26:43;3.80;;;3.70;;
14665;SDS011;7420;53.574;10.040;2023-07-16T07:29:09;3.80;;;3.70;;
14665;SDS011;7420;53.574;10.040;2023-07-16T07:31:35;3.90;;;3.80;;
14665;SDS011;7420;53.574;10.040;2023-07-16T07:34:01;3.90;;;3.80;;
14665;SDS011;7420;53.574;10.040;2023-07-16T07:36:28;3.97;;;3.88;;
14665;SDS011;7420;53.574;10.040;2023-07-16T07:38:54;3.90;;;3.80;;
14665;SDS011;7420;53.574;10.040;2023-07-16T07:41:20;3.90;;;3.80;;
14665;SDS011;7420;53.574;10.040;2023-07-16T07:43:45;3.80;;;3.70;;
14665;SDS011;7420;53.574;10.040;2023-07-16T07:46:11;4.00;;;3.90;;
14665;SDS011;7420;53.574;10.040;2023-07-16T07:48:36;3.70;;;3.60;;
14665;SDS011;7420;53.574;10.040;2023-07-16T07:51:02;3.90;;;3.80;;
14665;SDS011;7420;53.574;10.040;2023-07-16T07:53:31;3.70;;;3.60;;
14665;SDS011;7420;53.574;10.040;2023-07-16T07:55:56;3.70;;;3.60;;
14665;SDS011;7420;53.574;10.040;2023-07-16T07:58:22;3.80;;;3.70;;
14665;SDS011;7420;53.574;10.040;2023-07-16T08:00:48;3.80;;;3.70;;
14665;SDS011;7420;53.574;10.040;2023-07-16T08:03:14;3.70;;;3.60;;
14665;SDS011;7420;53.574;10.040;2023-07-16T08:05:39;3.67;;;3.58;;
14665;SDS011;7420;53.574;10.040;2023-07-16T08:08:05;3.70;;;3.60;;
14665;SDS011;7420;53.574;10.040;2023-07-16T08:10:30;3.70;;;3.60;;
14665;SDS011;7420;53.574;10.040;2023-07-16T08:12:56;3.70;;;3.60;;
14665;SDS011;7420;53.574;10.040;2023-07-16T08:15:21;3.60;;;3.50;;
14665;SDS011;7420;53.574;10.040;2023-07-16T08:17:47;3.70;;;3.60;;
14665;SDS011;7420;53.574;10.040;2023-07-16T08:20:13;3.60;;;3.50;;
14665;SDS011;7420;53.574;10.040;2023-07-16T08:22:39;3.80;;;3.70;;
14665;SDS011;7420;53.574;10.040;2023-07-16T08:25:05;3.63;;;3.53;;
14665;SDS011;7420;53.574;10.040;2023-07-16T08:27:32;3.70;;;3.60;;
14665;SDS011;7420;53.574;10.040;2023-07-16T08:29:57;3.70;;;3.60;;
14665;SDS011;7420;53.574;10.040;2023-07-16T08:32:23;3.85;;;3.75;;
14665;SDS011;7420;53.574;10.040;2023-07-16T08:34:49;3.70;;;3.60;;
14665;SDS011;7420;53.574;10.040;2023-07-16T08:37:15;3.72;;;3.63;;
14665;SDS011;7420;53.574;10.040;2023-07-16T08:39:40;3.70;;;3.60;;
14665;SDS011;7420;53.574;10.040;2023-07-16T08:42:06;3.70;;;3.60;;
14665;SDS011;7420;53.574;10.040;2023-07-16T08:44:35;3.80;;;3.70;;
14665;SDS011;7420;53.574;10.040;2023-07-16T08:47:03;3.70;;;3.60;;
14665;SDS011;7420;53.574;10.040;2023-07-16T08:49:29;3.88;;;3.78;;
14665;SDS011;7420;53.574;10.040;2023-07-16T08:51:55;3.70;;;3.60;;
14665;SDS011;7420;53.574;10.040;2023-07-16T08:54:26;3.60;;;3.50;;
14665;SDS011;7420;53.574;10.040;2023-07-16T08:56:51;3.60;;;3.50;;
14665;SDS011;7420;53.574;10.040;2023-07-16T08:59:17;3.70;;;3.60;;
14665;SDS011;7420;53.574;10.040;2023-07-16T09:01:47;3.70;;;3.60;;
14665;SDS011;7420;53.574;10.040;2023-07-16T09:04:14;3.67;;;3.58;;
14665;SDS011;7420;53.574;10.040;2023-07-16T09:06:40;3.60;;;3.50;;
14665;SDS011;7420;53.574;10.040;2023-07-16T09:09:06;3.60;;;3.50;;
14665;SDS011;7420;53.574;10.040;2023-07-16T09:11:32;3.80;;;3.70;;
14665;SDS011;7420;53.574;10.040;2023-07-16T09:14:01;3.80;;;3.70;;
14665;SDS011;7420;53.574;10.040;2023-07-16T09:16:31;3.72;;;3.63;;
14665;SDS011;7420;53.574;10.040;2023-07-16T09:19:04;3.80;;;3.70;;
14665;SDS011;7420;53.574;10.040;2023-07-16T09:21:32;3.70;;;3.60;;
14665;SDS011;7420;53.574;10.040;2023-07-16T09:24:00;3.80;;;3.70;;
14665;SDS011;7420;53.574;10.040;2023-07-16T09:26:25;3.70;;;3.60;;
14665;SDS011;7420;53.574;10.040;2023-07-16T09:28:51;3.70;;;3.60;;
14665;SDS011;7420;53.574;10.040;2023-07-16T09:31:19;3.60;;;3.50;;
14665;SDS011;7420;53.574;10.040;2023-07-16T09:33:50;3.70;;;3.60;;
14665;SDS011;7420;53.574;10.040;2023-07-16T09:36:22;3.60;;;3.50;;
14665;SDS011;7420;53.574;10.040;2023-07-16T09:38:49;3.60;;;3.50;;
14665;SDS011;7420;53.574;10.040;2023-07-16T09:41:18;3.60;;;3.50;;
14665;SDS011;7420;53.574;10.040;2023-07-16T09:43:45;3.70;;;3.60;;
14665;SDS011;7420;53.574;10.040;2023-07-16T09:46:11;3.60;;;3.50;;
14665;SDS011;7420;53.574;10.040;2023-07-16T09:48:36;3.67;;;3.58;;
14665;SDS011;7420;53.574;10.040;2023-07-16T09:51:05;3.50;;;3.40;;
14665;SDS011;7420;53.574;10.040;2023-07-16T09:53:36;3.70;;;3.60;;
14665;SDS011;7420;53.574;10.040;2023-07-16T09:56:03;3.80;;;3.70;;
14665;SDS011;7420;53.574;10.040;2023-07-16T09:58:29;3.70;;;3.60;;
14665;SDS011;7420;53.574;10.040;2023-07-16T10:00:55;3.60;;;3.50;;
14665;SDS011;7420;53.574;10.040;2023-07-16T10:03:22;3.80;;;3.70;;
14665;SDS011;7420;53.574;10.040;2023-07-16T10:05:47;3.60;;;3.50;;
14665;SDS011;7420;53.574;10.040;2023-07-16T10:08:18;3.70;;;3.60;;
14665;SDS011;7420;53.574;10.040;2023-07-16T10:10:46;3.65;;;3.55;;
14665;SDS011;7420;53.574;10.040;2023-07-16T10:15:53;3.80;;;3.70;;
14665;SDS011;7420;53.574;10.040;2023-07-16T10:18:26;3.70;;;3.60;;
14665;SDS011;7420;53.574;10.040;2023-07-16T10:21:03;3.70;;;3.60;;
14665;SDS011;7420;53.574;10.040;2023-07-16T10:23:41;3.70;;;3.60;;
14665;SDS011;7420;53.574;10.040;2023-07-16T10:26:10;3.60;;;3.50;;
14665;SDS011;7420;53.574;10.040;2023-07-16T10:28:37;3.80;;;3.70;;
14665;SDS011;7420;53.574;10.040;2023-07-16T10:31:03;3.70;;;3.60;;
14665;SDS011;7420;53.574;10.040;2023-07-16T10:33:29;3.80;;;3.70;;
14665;SDS011;7420;53.574;10.040;2023-07-16T10:35:56;3.70;;;3.60;;
14665;SDS011;7420;53.574;10.040;2023-07-16T10:38:26;3.50;;;3.40;;
14665;SDS011;7420;53.574;10.040;2023-07-16T10:40:52;3.70;;;3.60;;
14665;SDS011;7420;53.574;10.040;2023-07-16T10:43:17;3.75;;;3.65;;
14665;SDS011;7420;53.574;10.040;2023-07-16T10:46:03;3.50;;;3.40;;
14665;SDS011;7420;53.574;10.040;2023-07-16T10:48:29;3.70;;;3.60;;
14665;SDS011;7420;53.574;10.040;2023-07-16T10:50:55;3.80;;;3.70;;
14665;SDS011;7420;53.574;10.040;2023-07-16T10:53:21;3.70;;;3.60;;
14665;SDS011;7420;53.574;10.040;2023-07-16T10:55:48;3.80;;;3.70;;
14665;SDS011;7420;53.574;10.040;2023-07-16T10:58:13;3.70;;;3.60;;
14665;SDS011;7420;53.574;10.040;2023-07-16T11:00:39;3.83;;;3.72;;
14665;SDS011;7420;53.574;10.040;2023-07-16T11:03:05;3.70;;;3.60;;
14665;SDS011;7420;53.574;10.040;2023-07-16T11:05:31;3.80;;;3.70;;
14665;SDS011;7420;53.574;10.040;2023-07-16T11:08:00;3.80;;;3.70;;
14665;SDS011;7420;53.574;10.040;2023-07-16T11:10:28;3.50;;;3.40;;
14665;SDS011;7420;53.574;10.040;2023-07-16T11:12:55;3.50;;;3.40;;
14665;SDS011;7420;53.574;10.040;2023-07-16T11:15:33;3.50;;;3.40;;
14665;SDS011;7420;53.574;10.040;2023-07-16T11:18:00;3.50;;;3.40;;
14665;SDS011;7420;53.574;10.040;2023-07-16T11:20:26;3.60;;;3.50;;
14665;SDS011;7420;53.574;10.040;2023-07-16T11:22:52;3.60;;;3.50;;
14665;SDS011;7420;53.574;10.040;2023-07-16T11:25:18;3.53;;;3.42;;
14665;SDS011;7420;53.574;10.040;2023-07-16T11:27:45;3.50;;;3.40;;
14665;SDS011;7420;53.574;10.040;2023-07-16T11:30:10;3.50;;;3.40;;
14665;SDS011;7420;53.574;10.040;2023-07-16T11:32:41;3.55;;;3.45;;
14665;SDS011;7420;53.574;10.040;2023-07-16T11:35:08;3.70;;;3.60;;
14665;SDS011;7420;53.574;10.040;2023-07-16T11:37:41;3.70;;;3.60;;
14665;SDS011;7420;53.574;10.040;2023-07-16T11:40:07;3.50;;;3.40;;
14665;SDS011;7420;53.574;10.040;2023-07-16T11:42:35;3.50;;;3.40;;
14665;SDS011;7420;53.574;10.040;2023-07-16T11:45:02;3.50;;;3.40;;
14665;SDS011;7420;53.574;10.040;2023-07-16T11:47:29;3.60;;;3.50;;
14665;SDS011;7420;53.574;10.040;2023-07-16T11:49:55;3.50;;;3.40;;
14665;SDS011;7420;53.574;10.040;2023-07-16T11:52:21;3.50;;;3.40;;
14665;SDS011;7420;53.574;10.040;2023-07-16T11:54:52;3.55;;;3.45;;
14665;SDS011;7420;53.574;10.040;2023-07-16T11:57:18;3.50;;;3.40;;
14665;SDS011;7420;53.574;10.040;2023-07-16T11:59:44;3.40;;;3.30;;
14665;SDS011;7420;53.574;10.040;2023-07-16T12:02:10;3.67;;;3.58;;
14665;SDS011;7420;53.574;10.040;2023-07-16T12:04:35;3.50;;;3.40;;
14665;SDS011;7420;53.574;10.040;2023-07-16T12:07:01;3.50;;;3.40;;
14665;SDS011;7420;53.574;10.040;2023-07-16T12:09:29;3.60;;;3.50;;
14665;SDS011;7420;53.574;10.040;2023-07-16T12:11:55;3.50;;;3.40;;
14665;SDS011;7420;53.574;10.040;2023-07-16T12:14:21;3.40;;;3.30;;
14665;SDS011;7420;53.574;10.040;2023-07-16T12:16:47;3.50;;;3.40;;
14665;SDS011;7420;53.574;10.040;2023-07-16T12:19:13;3.50;;;3.40;;
14665;SDS011;7420;53.574;10.040;2023-07-16T12:21:41;3.50;;;3.40;;
14665;SDS011;7420;53.574;10.040;2023-07-16T12:24:07;3.58;;;3.47;;
14665;SDS011;7420;53.574;10.040;2023-07-16T12:26:33;3.50;;;3.40;;
14665;SDS011;7420;53.574;10.040;2023-07-16T12:28:59;3.50;;;3.40;;
14665;SDS011;7420;53.574;10.040;2023-07-16T12:31:27;3.50;;;3.40;;
14665;SDS011;7420;53.574;10.040;2023-07-16T12:33:53;3.50;;;3.40;;
14665;SDS011;7420;53.574;10.040;2023-07-16T12:36:19;3.40;;;3.30;;
14665;SDS011;7420;53.574;10.040;2023-07-16T12:38:44;3.47;;;3.38;;
14665;SDS011;7420;53.574;10.040;2023-07-16T12:41:10;3.30;;;3.20;;
14665;SDS011;7420;53.574;10.040;2023-07-16T12:43:36;3.40;;;3.30;;
14665;SDS011;7420;53.574;10.040;2023-07-16T12:46:01;3.42;;;3.33;;
14665;SDS011;7420;53.574;10.040;2023-07-16T12:48:30;3.40;;;3.30;;
14665;SDS011;7420;53.574;10.040;2023-07-16T12:50:56;3.40;;;3.30;;
14665;SDS011;7420;53.574;10.040;2023-07-16T12:53:22;3.38;;;3.28;;
14665;SDS011;7420;53.574;10.040;2023-07-16T12:55:48;3.47;;;3.38;;
14665;SDS011;7420;53.574;10.040;2023-07-16T12:58:14;3.60;;;3.50;;
14665;SDS011;7420;53.574;10.040;2023-07-16T13:00:39;3.58;;;3.47;;
14665;SDS011;7420;53.574;10.040;2023-07-16T13:03:05;3.60;;;3.50;;
14665;SDS011;7420;53.574;10.040;2023-07-16T13:05:31;3.53;;;3.42;;
14665;SDS011;7420;53.574;10.040;2023-07-16T13:07:56;3.60;;;3.50;;
14665;SDS011;7420;53.574;10.040;2023-07-16T13:10:25;3.30;;;3.20;;
14665;SDS011;7420;53.574;10.040;2023-07-16T13:12:50;3.50;;;3.40;;
14665;SDS011;7420;53.574;10.040;2023-07-16T13:15:16;3.45;;;3.35;;
14665;SDS011;7420;53.574;10.040;2023-07-16T13:17:41;3.50;;;3.40;;
14665;SDS011;7420;53.574;10.040;2023-07-16T13:20:07;3.47;;;3.38;;
14665;SDS011;7420;53.574;10.040;2023-07-16T13:22:34;3.40;;;3.30;;
14665;SDS011;7420;53.574;10.040;2023-07-16T13:24:59;3.40;;;3.30;;
14665;SDS011;7420;53.574;10.040;2023-07-16T13:27:25;3.38;;;3.28;;
14665;SDS011;7420;53.574;10.040;2023-07-16T13:29:50;3.30;;;3.20;;
14665;SDS011;7420;53.574;10.040;2023-07-16T13:32:16;3.50;;;3.40;;
14665;SDS011;7420;53.574;10.040;2023-07-16T13:34:42;3.40;;;3.30;;
14665;SDS011;7420;53.574;10.040;2023-07-16T13:37:07;3.40;;;3.30;;
14665;SDS011;7420;53.574;10.040;2023-07-16T13:39:35;3.60;;;3.50;;
14665;SDS011;7420;53.574;10.040;2023-07-16T13:42:00;3.50;;;3.40;;
14665;SDS011;7420;53.574;10.040;2023-07-16T13:44:26;3.40;;;3.30;;
14665;SDS011;7420;53.574;10.040;2023-07-16T13:46:51;3.50;;;3.40;;
14665;SDS011;7420;53.574;10.040;2023-07-16T13:49:17;3.50;;;3.40;;
14665;SDS011;7420;53.574;10.040;2023-07-16T13:51:43;3.40;;;3.30;;
14665;SDS011;7420;53.574;10.040;2023-07-16T13:54:10;3.40;;;3.30;;
14665;SDS011;7420;53.574;10.040;2023-07-16T13:56:37;3.50;;;3.40;;
14665;SDS011;7420;53.574;10.040;2023-07-16T13:59:03;3.40;;;3.30;;
14665;SDS011;7420;53.574;10.040;2023-07-16T14:01:29;3.40;;;3.30;;
14665;SDS011;7420;53.574;10.040;2023-07-16T14:03:54;3.30;;;3.20;;
14665;SDS011;7420;53.574;10.040;2023-07-16T14:06:20;3.47;;;3.38;;
14665;SDS011;7420;53.574;10.040;2023-07-16T14:08:46;3.50;;;3.40;;
14665;SDS011;7420;53.574;10.040;2023-07-16T14:11:12;3.50;;;3.40;;
14665;SDS011;7420;53.574;10.040;2023-07-16T14:13:37;3.50;;;3.40;;
14665;SDS011;7420;53.574;10.040;2023-07-16T14:16:03;3.40;;;3.30;;
14665;SDS011;7420;53.574;10.040;2023-07-16T14:18:32;3.50;;;3.40;;
14665;SDS011;7420;53.574;10.040;2023-07-16T14:20:57;3.60;;;3.50;;
14665;SDS011;7420;53.574;10.040;2023-07-16T14:23:23;3.50;;;3.40;;
14665;SDS011;7420;53.574;10.040;2023-07-16T14:25:51;3.60;;;3.50;;
14665;SDS011;7420;53.574;10.040;2023-07-16T14:28:16;3.58;;;3.47;;
14665;SDS011;7420;53.574;10.040;2023-07-16T14:30:42;3.50;;;3.40;;
14665;SDS011;7420;53.574;10.040;2023-07-16T14:33:07;3.50;;;3.40;;
14665;SDS011;7420;53.574;10.040;2023-07-16T14:35:33;3.50;;;3.40;;
14665;SDS011;7420;53.574;10.040;2023-07-16T14:37:59;3.70;;;3.60;;
14665;SDS011;7420;53.574;10.040;2023-07-16T14:40:25;3.50;;;3.40;;
14665;SDS011;7420;53.574;10.040;2023-07-16T14:42:53;3.50;;;3.40;;
14665;SDS011;7420;53.574;10.040;2023-07-16T14:45:19;3.50;;;3.40;;
14665;SDS011;7420;53.574;10.040;2023-07-16T14:47:48;3.40;;;3.30;;
14665;SDS011;7420;53.574;10.040;2023-07-16T14:50:13;3.40;;;3.30;;